createdAt,value
2022-12-18T00:01:27.967Z,100813.63
2022-12-18T00:03:56.524Z,100821.91
2022-12-18T00:06:25.753Z,100819.31
2022-12-18T00:08:52.692Z,100817.59
2022-12-18T00:11:24.252Z,100814.38
2022-12-18T00:13:52.768Z,100811.78
2022-12-18T00:16:23.359Z,100820.91
2022-12-18T00:18:55.385Z,100819.09
2022-12-18T00:21:22.792Z,100824.03
2022-12-18T00:23:51.301Z,100819.97
2022-12-18T00:26:23.203Z,100818.25
2022-12-18T00:28:51.013Z,100823.19
2022-12-18T00:31:22.715Z,100825.56
2022-12-18T00:33:50.026Z,100833.75
2022-12-18T00:36:31.400Z,100831.16
2022-12-18T00:39:00.116Z,100828.59
2022-12-18T00:41:46.806Z,100816.22
2022-12-18T00:44:16.724Z,100820.19
2022-12-18T00:46:45.518Z,100814.28
2022-12-18T00:49:12.351Z,100820.06
2022-12-18T00:51:39.195Z,100821.56
2022-12-18T00:54:06.613Z,100818.34
2022-12-18T00:56:33.323Z,100813.38
2022-12-18T00:59:00.042Z,100824.94
2022-12-18T01:01:26.810Z,100815.66
2022-12-18T01:03:53.567Z,100808.97
2022-12-18T01:06:20.835Z,100803.94
2022-12-18T01:08:47.648Z,100812.22
2022-12-18T01:11:18.658Z,100816.41
2022-12-18T01:13:45.595Z,100805.53
2022-12-18T01:16:15.164Z,100811.34
2022-12-18T01:18:42.325Z,100808.78
2022-12-18T01:21:13.029Z,100810.28
2022-12-18T01:23:40.561Z,100809.31
2022-12-18T01:26:16.436Z,100801.88
2022-12-18T01:28:44.846Z,100796.81
2022-12-18T01:31:14.941Z,100806.59
2022-12-18T01:33:42.052Z,100812.44
2022-12-18T01:36:15.019Z,100806.59
2022-12-18T01:38:41.977Z,100801.75
2022-12-18T01:41:10.128Z,100803.47
2022-12-18T01:43:55.083Z,100801.88
2022-12-18T01:46:24.797Z,100800.25
2022-12-18T01:48:58.719Z,100802.84
2022-12-18T01:51:30.671Z,100806.19
2022-12-18T01:53:58.937Z,100803.81
2022-12-18T01:56:25.672Z,100813.28
2022-12-18T01:59:01.968Z,100814.38
2022-12-18T02:01:31.990Z,100804.47
2022-12-18T02:04:25.663Z,100811.34
2022-12-18T02:07:21.757Z,100802.28
2022-12-18T02:09:57.964Z,100801.75
2022-12-18T02:12:31.517Z,100803.56
2022-12-18T02:15:33.107Z,100806.28
2022-12-18T02:18:34.602Z,100790.44
2022-12-18T02:22:08.908Z,100785.38
2022-12-18T02:24:53.561Z,100789.91
2022-12-18T02:27:20.668Z,100791.53
2022-12-18T02:29:58.771Z,100790.78
2022-12-18T02:32:32.561Z,100789.06
2022-12-18T02:35:01.607Z,100780.00
2022-12-18T02:37:30.611Z,100778.41
2022-12-18T02:40:00.020Z,100770.09
2022-12-18T02:42:28.984Z,100771.72
2022-12-18T02:44:55.808Z,100783.13
2022-12-18T02:47:28.739Z,100785.50
2022-12-18T02:50:25.717Z,100788.63
2022-12-18T02:53:25.158Z,100780.88
2022-12-18T02:56:14.056Z,100782.19
2022-12-18T02:59:08.150Z,100783.38
2022-12-18T03:01:53.175Z,100782.28
2022-12-18T03:04:23.788Z,100780.25
2022-12-18T03:06:59.417Z,100779.91
2022-12-18T03:09:37.601Z,100771.19
2022-12-18T03:12:24.270Z,100771.09
2022-12-18T03:15:22.653Z,100770.63
2022-12-18T03:18:00.397Z,100769.97
2022-12-18T03:20:31.785Z,100763.84
2022-12-18T03:23:12.406Z,100769.22
2022-12-18T03:25:45.010Z,100754.13
2022-12-18T03:28:18.831Z,100766.28
2022-12-18T03:30:50.768Z,100752.09
2022-12-18T03:33:33.200Z,100750.25
2022-12-18T03:35:59.992Z,100746.81
2022-12-18T03:38:26.842Z,100756.47
2022-12-18T03:41:21.375Z,100744.22
2022-12-18T03:44:52.120Z,100748.97
2022-12-18T03:47:32.694Z,100751.22
2022-12-18T03:50:12.861Z,100744.75
2022-12-18T03:52:50.466Z,100750.78
2022-12-18T03:55:21.895Z,100750.91
2022-12-18T03:57:50.581Z,100748.53
2022-12-18T04:00:20.778Z,100737.88
2022-12-18T04:02:57.229Z,100747.25
2022-12-18T04:05:28.120Z,100736.81
2022-12-18T04:07:57.190Z,100734.47
2022-12-18T04:10:23.927Z,100726.28
2022-12-18T04:12:50.628Z,100726.28
2022-12-18T04:15:17.539Z,100727.25
2022-12-18T04:17:50.187Z,100727.25
2022-12-18T04:20:17.997Z,100725.53
2022-12-18T04:22:44.762Z,100725.44
2022-12-18T04:25:12.847Z,100724.69
2022-12-18T04:27:39.775Z,100723.81
2022-12-18T04:30:07.538Z,100720.47
2022-12-18T04:32:35.524Z,100725.31
2022-12-18T04:35:05.029Z,100717.03
2022-12-18T04:37:31.734Z,100707.75
2022-12-18T04:39:58.457Z,100709.28
2022-12-18T04:42:25.192Z,100702.59
2022-12-18T04:44:51.918Z,100702.50
2022-12-18T04:47:18.686Z,100694.09
2022-12-18T04:49:45.447Z,100697.44
2022-12-18T04:52:12.195Z,100697.44
2022-12-18T04:54:38.884Z,100694.09
2022-12-18T04:57:05.619Z,100699.28
2022-12-18T04:59:32.326Z,100692.50
2022-12-18T05:01:59.201Z,100699.16
2022-12-18T05:04:26.021Z,100704.97
2022-12-18T05:06:52.771Z,100712.41
2022-12-18T05:09:19.549Z,100711.66
2022-12-18T05:11:47.559Z,100715.81
2022-12-18T05:14:14.490Z,100722.59
2022-12-18T05:16:41.395Z,100731.13
2022-12-18T05:19:08.233Z,100741.75
2022-12-18T05:21:34.951Z,100739.44
2022-12-18T05:24:01.693Z,100744.38
2022-12-18T05:26:28.468Z,100747.91
2022-12-18T05:28:55.171Z,100742.22
2022-12-18T05:31:22.037Z,100749.53
2022-12-18T05:33:48.801Z,100751.25
2022-12-18T05:36:15.663Z,100745.31
2022-12-18T05:38:42.642Z,100727.91
2022-12-18T05:41:10.501Z,100737.69
2022-12-18T05:43:40.023Z,100745.22
2022-12-18T05:46:12.936Z,100748.69
2022-12-18T05:48:39.972Z,100752.84
2022-12-18T05:51:10.404Z,100746.63
2022-12-18T05:53:38.598Z,100744.59
2022-12-18T05:56:09.890Z,100740.72
2022-12-18T05:58:42.527Z,100742.41
2022-12-18T06:01:20.740Z,100737.59
2022-12-18T06:03:48.008Z,100726.72
2022-12-18T06:06:25.229Z,100728.47
2022-12-18T06:08:54.733Z,100724.16
2022-12-18T06:11:31.099Z,100725.44
2022-12-18T06:13:59.473Z,100726.63
2022-12-18T06:16:31.678Z,100736.41
2022-12-18T06:19:05.256Z,100729.53
2022-12-18T06:21:33.305Z,100713.59
2022-12-18T06:24:01.569Z,100723.81
2022-12-18T06:26:56.809Z,100720.59
2022-12-18T06:29:23.609Z,100713.34
2022-12-18T06:31:50.381Z,100721.22
2022-12-18T06:34:19.660Z,100713.22
2022-12-18T06:36:46.568Z,100729.59
2022-12-18T06:39:13.422Z,100721.09
2022-12-18T06:41:40.298Z,100716.78
2022-12-18T06:44:07.640Z,100724.50
2022-12-18T06:46:34.639Z,100728.63
2022-12-18T06:49:01.545Z,100734.75
2022-12-18T06:51:29.651Z,100733.28
2022-12-18T06:53:56.532Z,100731.63
2022-12-18T06:56:23.319Z,100740.25
2022-12-18T06:58:50.016Z,100747.03
2022-12-18T07:01:16.771Z,100742.94
2022-12-18T07:03:50.717Z,100743.50
2022-12-18T07:06:21.145Z,100743.50
2022-12-18T07:08:49.675Z,100736.16
2022-12-18T07:11:17.690Z,100737.91
2022-12-18T07:13:45.146Z,100726.91
2022-12-18T08:26:24.009Z,100628.69
2022-12-18T08:28:58.601Z,100631.31
2022-12-18T08:31:40.786Z,100619.47
2022-12-18T08:34:27.669Z,100628.69
2022-12-18T08:37:00.611Z,100632.94
2022-12-18T08:39:35.101Z,100644.75
2022-12-18T09:20:05.930Z,100587.47
2022-12-18T10:02:06.067Z,100554.75
2022-12-18T10:08:49.492Z,100552.22
2022-12-18T10:20:15.310Z,100547.97
2022-12-18T10:23:20.729Z,100545.25
2022-12-18T10:26:10.544Z,100537.41
2022-12-18T10:28:41.617Z,100545.53
2022-12-18T10:31:20.938Z,100528.72
2022-12-18T10:33:51.922Z,100530.16
2022-12-18T10:36:18.654Z,100528.94
2022-12-18T10:38:45.411Z,100534.16
2022-12-18T10:41:26.768Z,100539.16
2022-12-18T10:44:18.555Z,100540.53
2022-12-18T10:46:56.830Z,100536.97
2022-12-18T10:49:31.520Z,100549.34
2022-12-18T10:52:23.975Z,100537.63
2022-12-18T10:54:59.479Z,100532.56
2022-12-18T10:57:38.074Z,100536.00
2022-12-18T11:00:31.183Z,100527.84
2022-12-18T11:02:58.725Z,100537.91
2022-12-18T11:05:34.238Z,100534.72
2022-12-18T11:08:02.472Z,100528.78
2022-12-18T11:10:36.280Z,100518.72
2022-12-18T11:13:21.603Z,100521.03
2022-12-18T11:15:49.318Z,100514.09
2022-12-18T11:18:25.035Z,100514.03
2022-12-18T11:21:08.863Z,100513.03
2022-12-18T11:23:38.262Z,100499.56
2022-12-18T11:26:06.983Z,100502.06
2022-12-18T11:28:43.275Z,100503.69
2022-12-18T11:31:29.351Z,100503.50
2022-12-18T11:36:50.649Z,100490.53
2022-12-18T11:39:43.581Z,100488.81
2022-12-18T11:42:25.110Z,100461.09
2022-12-18T11:44:59.751Z,100464.38
2022-12-18T11:48:07.881Z,100461.09
2022-12-18T11:50:52.069Z,100466.03
2022-12-18T11:53:19.516Z,100469.38
2022-12-18T11:56:00.929Z,100467.88
2022-12-18T11:58:58.563Z,100471.16
2022-12-18T12:02:12.393Z,100461.19
2022-12-18T12:05:27.256Z,100462.88
2022-12-18T12:08:25.565Z,100460.47
2022-12-18T12:11:21.163Z,100459.69
2022-12-18T12:14:09.279Z,100463.06
2022-12-18T12:16:50.127Z,100454.69
2022-12-18T12:19:40.140Z,100444.69
2022-12-18T12:22:31.986Z,100443.06
2022-12-18T12:25:53.207Z,100449.97
2022-12-18T12:29:21.125Z,100450.03
2022-12-18T12:32:14.060Z,100449.03
2022-12-18T12:35:26.337Z,100442.53
2022-12-18T12:38:13.673Z,100435.09
2022-12-18T12:40:56.968Z,100440.38
2022-12-18T12:43:50.489Z,100443.88
2022-12-18T12:46:22.744Z,100433.06
2022-12-18T12:48:59.277Z,100420.78
2022-12-18T12:51:35.661Z,100411.84
2022-12-18T12:54:07.445Z,100406.13
2022-12-18T12:56:51.313Z,100408.72
2022-12-18T12:59:58.963Z,100394.69
2022-12-18T13:02:59.392Z,100402.16
2022-12-18T13:05:55.971Z,100397.97
2022-12-18T13:08:34.219Z,100394.53
2022-12-18T13:11:22.189Z,100395.47
2022-12-18T13:13:55.993Z,100388.91
2022-12-18T13:16:28.458Z,100385.66
2022-12-18T13:18:59.741Z,100381.63
2022-12-18T13:21:31.896Z,100382.56
2022-12-18T13:24:31.653Z,100371.69
2022-12-18T13:26:58.546Z,100364.84
2022-12-18T13:29:45.726Z,100363.22
2022-12-18T13:32:27.595Z,100364.75
2022-12-18T13:35:19.236Z,100357.91
2022-12-18T13:37:55.970Z,100365.94
2022-12-18T13:40:41.297Z,100349.88
2022-12-18T13:43:37.851Z,100340.44
2022-12-18T13:46:29.138Z,100349.44
2022-12-18T13:49:06.605Z,100349.16
2022-12-18T13:51:36.323Z,100337.34
2022-12-18T13:54:33.912Z,100342.34
2022-12-18T13:57:01.115Z,100343.94
2022-12-18T13:59:40.892Z,100344.78
2022-12-18T14:02:22.956Z,100346.38
2022-12-18T14:04:51.671Z,100335.50
2022-12-18T14:07:30.819Z,100333.94
2022-12-18T14:10:18.752Z,100324.84
2022-12-18T14:12:57.914Z,100324.91
2022-12-18T14:15:27.921Z,100314.06
2022-12-18T14:18:00.150Z,100322.41
2022-12-18T14:20:33.462Z,100319.84
2022-12-18T14:23:01.761Z,100320.66
2022-12-18T14:25:31.238Z,100307.38
2022-12-18T14:28:16.307Z,100320.66
2022-12-18T14:30:46.047Z,100302.97
2022-12-18T14:33:23.457Z,100303.69
2022-12-18T14:36:04.560Z,100305.19
2022-12-18T14:38:36.365Z,100309.16
2022-12-18T14:41:14.926Z,100309.16
2022-12-18T14:43:45.099Z,100303.31
2022-12-18T14:46:47.132Z,100315.13
2022-12-18T14:49:26.035Z,100313.34
2022-12-18T14:51:57.529Z,100317.56
2022-12-18T14:54:26.994Z,100308.63
2022-12-18T14:57:19.627Z,100305.41
2022-12-18T14:59:46.419Z,100302.84
2022-12-18T15:02:29.535Z,100312.75
2022-12-18T15:05:30.772Z,100320.25
2022-12-18T15:08:01.336Z,100320.34
2022-12-18T15:10:31.892Z,100327.88
2022-12-18T15:13:01.461Z,100331.28
2022-12-18T15:15:34.717Z,100335.66
2022-12-18T15:18:32.981Z,100328.94
2022-12-18T15:21:09.650Z,100340.66
2022-12-18T15:23:50.313Z,100332.34
2022-12-18T15:26:21.694Z,100334.06
2022-12-18T15:28:59.372Z,100324.06
2022-12-18T15:31:36.478Z,100331.50
2022-12-18T15:34:08.935Z,100333.16
2022-12-18T15:36:38.961Z,100333.94
2022-12-18T15:39:06.852Z,100330.66
2022-12-18T15:41:36.895Z,100320.66
2022-12-18T15:44:22.198Z,100319.78
2022-12-18T15:46:49.057Z,100310.47
2022-12-18T15:49:15.757Z,100310.25
2022-12-18T15:51:42.920Z,100310.25
2022-12-18T15:54:17.025Z,100310.19
2022-12-18T15:57:02.678Z,100303.56
2022-12-18T15:59:29.490Z,100297.59
2022-12-18T16:01:57.633Z,100288.44
2022-12-18T16:04:25.680Z,100286.81
2022-12-18T16:07:14.691Z,100290.28
2022-12-18T16:09:39.679Z,100288.72
2022-12-18T16:12:15.138Z,100289.72
2022-12-18T16:14:42.027Z,100291.41
2022-12-18T16:17:13.332Z,100295.69
2022-12-18T16:19:40.347Z,100295.75
2022-12-18T16:22:13.555Z,100310.78
2022-12-18T16:24:40.414Z,100297.44
2022-12-18T16:27:07.170Z,100289.22
2022-12-18T16:29:33.936Z,100298.41
2022-12-18T16:32:01.853Z,100291.84
2022-12-18T16:34:36.114Z,100291.91
2022-12-18T16:37:06.784Z,100292.75
2022-12-18T16:39:35.454Z,100295.19
2022-12-18T16:42:20.010Z,100296.84
2022-12-18T16:44:49.407Z,100285.03
2022-12-18T16:47:17.683Z,100287.38
2022-12-18T16:49:45.828Z,100282.16
2022-12-18T16:52:13.711Z,100283.72
2022-12-18T16:54:40.583Z,100282.78
2022-12-18T16:57:07.313Z,100276.88
2022-12-18T16:59:34.171Z,100291.88
2022-12-18T17:02:01.898Z,100283.44
2022-12-18T17:04:28.826Z,100298.44
2022-12-18T17:06:55.563Z,100294.38
2022-12-18T17:09:25.743Z,100297.78
2022-12-18T17:11:54.004Z,100294.53
2022-12-18T17:14:24.900Z,100297.97
2022-12-18T17:17:19.280Z,100290.53
2022-12-18T17:19:40.382Z,100296.25
2022-12-18T17:22:08.209Z,100296.22
2022-12-18T17:24:35.751Z,100280.38
2022-12-18T17:27:04.128Z,100288.59
2022-12-18T17:29:30.994Z,100278.53
2022-12-18T17:32:00.179Z,100282.72
2022-12-18T17:34:27.922Z,100278.59
2022-12-18T17:36:55.119Z,100282.78
2022-12-18T17:39:22.428Z,100285.44
2022-12-18T17:41:49.777Z,100285.56
2022-12-18T17:44:17.803Z,100289.88
2022-12-18T17:46:45.973Z,100287.59
2022-12-18T17:49:13.892Z,100287.75
2022-12-18T17:51:42.734Z,100280.47
2022-12-18T17:54:10.522Z,100285.59
2022-12-18T17:56:39.500Z,100296.50
2022-12-18T17:59:06.992Z,100278.97
2022-12-18T18:01:36.375Z,100281.47
2022-12-18T18:04:07.140Z,100286.31
2022-12-18T18:06:34.473Z,100278.69
2022-12-18T18:09:15.992Z,100277.91
2022-12-18T18:12:05.645Z,100272.91
2022-12-18T18:14:32.987Z,100269.63
2022-12-18T18:17:04.195Z,100273.88
2022-12-18T18:19:32.853Z,100275.66
2022-12-18T18:21:59.746Z,100270.00
2022-12-18T18:24:27.082Z,100271.84
2022-12-18T18:26:59.356Z,100264.34
2022-12-18T18:29:27.850Z,100266.13
2022-12-18T18:31:56.495Z,100269.44
2022-12-18T18:34:27.451Z,100273.72
2022-12-18T18:36:54.348Z,100263.78
2022-12-18T18:39:21.254Z,100270.50
2022-12-18T18:41:48.874Z,100270.75
2022-12-18T18:44:18.103Z,100268.41
2022-12-18T18:46:45.395Z,100269.47
2022-12-18T18:49:13.705Z,100268.78
2022-12-18T18:51:41.805Z,100273.94
2022-12-18T18:54:09.517Z,100277.38
2022-12-18T18:59:31.783Z,100265.84
2022-12-18T19:02:00.237Z,100260.13
2022-12-18T19:04:31.191Z,100258.59
2022-12-18T19:06:57.936Z,100259.50
2022-12-18T19:09:24.949Z,100262.19
2022-12-18T19:12:10.841Z,100254.78
2022-12-18T19:14:37.564Z,100252.44
2022-12-18T19:17:04.402Z,100257.53
2022-12-18T19:19:31.232Z,100255.97
2022-12-18T19:21:58.048Z,100260.22
2022-12-18T19:24:24.778Z,100262.78
2022-12-18T19:26:52.140Z,100269.50
2022-12-18T19:29:21.615Z,100277.09
2022-12-18T19:31:48.391Z,100276.31
2022-12-18T19:34:15.241Z,100279.72
2022-12-18T19:36:42.187Z,100262.94
2022-12-18T19:39:17.491Z,100274.66
2022-12-18T19:41:44.989Z,100286.19
2022-12-18T19:44:14.750Z,100285.28
2022-12-18T19:46:42.966Z,100276.75
2022-12-18T19:49:17.634Z,100285.06
2022-12-18T19:51:45.844Z,100274.88
2022-12-18T19:54:17.234Z,100279.75
2022-12-18T19:56:45.024Z,100266.22
2022-12-18T19:59:12.470Z,100274.44
2022-12-18T20:01:39.385Z,100283.56
2022-12-18T20:04:06.456Z,100281.00
2022-12-18T20:06:49.778Z,100277.56
2022-12-18T20:09:17.893Z,100276.63
2022-12-18T20:11:46.336Z,100278.97
2022-12-18T20:14:18.844Z,100285.56
2022-12-18T20:16:52.200Z,100286.22
2022-12-18T20:19:19.795Z,100286.16
2022-12-18T20:21:47.429Z,100301.94
2022-12-18T20:24:14.300Z,100304.50
2022-12-18T20:26:41.179Z,100310.38
2022-12-18T20:29:08.042Z,100317.94
2022-12-18T20:31:34.890Z,100308.88
2022-12-18T20:34:03.645Z,100301.38
2022-12-18T20:36:34.238Z,100306.53
2022-12-18T20:39:05.237Z,100316.66
2022-12-18T20:41:37.852Z,100320.06
2022-12-18T20:44:10.995Z,100326.84
2022-12-18T20:46:50.663Z,100330.25
2022-12-18T20:49:17.369Z,100327.84
2022-12-18T20:51:44.080Z,100324.50
2022-12-18T20:54:12.000Z,100324.59
2022-12-18T20:56:38.949Z,100323.06
2022-12-18T20:59:05.703Z,100323.13
2022-12-18T21:01:32.595Z,100310.69
2022-12-18T21:04:00.640Z,100303.28
2022-12-18T21:06:27.575Z,100305.84
2022-12-18T21:08:54.373Z,100302.50
2022-12-18T21:11:39.463Z,100303.34
2022-12-18T21:14:16.877Z,100306.72
2022-12-18T21:16:44.560Z,100309.09
2022-12-18T21:19:18.635Z,100302.31
2022-12-18T21:21:45.994Z,100305.63
2022-12-18T21:24:13.112Z,100303.88
2022-12-18T21:26:46.161Z,100302.94
2022-12-18T21:29:24.335Z,100298.63
2022-12-18T21:31:54.687Z,100303.56
2022-12-18T21:34:27.203Z,100297.56
2022-12-18T21:36:56.356Z,100296.72
2022-12-18T21:39:24.731Z,100297.56
2022-12-18T21:42:10.684Z,100289.28
2022-12-18T21:44:42.030Z,100285.13
2022-12-18T21:47:21.370Z,100275.13
2022-12-18T21:49:51.917Z,100273.56
2022-12-18T21:52:20.265Z,100281.09
2022-12-18T21:54:50.739Z,100267.00
2022-12-18T21:57:18.601Z,100269.59
2022-12-18T21:59:45.441Z,100260.47
2022-12-18T22:02:18.198Z,100265.63
2022-12-18T22:04:46.900Z,100259.06
2022-12-18T22:07:16.117Z,100257.44
2022-12-18T22:09:43.140Z,100244.09
2022-12-18T22:12:13.282Z,100243.47
2022-12-18T22:14:40.036Z,100240.94
2022-12-18T22:17:06.891Z,100227.63
2022-12-18T22:19:38.147Z,100209.28
2022-12-18T22:22:09.582Z,100220.94
2022-12-18T22:24:36.307Z,100211.78
2022-12-18T22:27:03.090Z,100209.38
2022-12-18T22:29:48.733Z,100206.13
2022-12-18T22:32:17.026Z,100204.56
2022-12-18T22:34:47.107Z,100200.44
2022-12-18T22:37:14.203Z,100190.53
2022-12-18T22:39:40.993Z,100201.47
2022-12-18T22:42:07.940Z,100191.59
2022-12-18T22:44:34.711Z,100188.34
2022-12-18T22:47:06.218Z,100188.41
2022-12-18T22:49:34.901Z,100186.78
2022-12-18T22:52:09.225Z,100188.69
2022-12-18T22:54:36.500Z,100191.47
2022-12-18T22:57:03.431Z,100186.59
2022-12-18T22:59:30.213Z,100182.72
2022-12-18T23:01:58.680Z,100180.47
2022-12-18T23:04:36.165Z,100173.97
2022-12-18T23:07:05.374Z,100167.53
2022-12-18T23:09:32.952Z,100162.69
2022-12-18T23:12:00.258Z,100167.84
2022-12-18T23:14:28.402Z,100158.78
2022-12-18T23:16:55.577Z,100149.81
2022-12-18T23:19:23.931Z,100136.59
2022-12-18T23:21:51.709Z,100135.97
2022-12-18T23:24:19.605Z,100131.16
2022-12-18T23:26:46.349Z,100138.84
2022-12-18T23:29:13.099Z,100128.09
2022-12-18T23:31:40.236Z,100125.75
2022-12-18T23:34:08.074Z,100130.06
2022-12-18T23:36:46.068Z,100128.59
2022-12-18T23:39:17.445Z,100122.91
2022-12-18T23:41:57.252Z,100123.97
2022-12-18T23:44:23.977Z,100115.88
2022-12-18T23:46:50.724Z,100112.72
2022-12-18T23:49:17.527Z,100096.09
2022-12-18T23:51:44.233Z,100082.91
2022-12-18T23:54:11.024Z,100079.66
2022-12-18T23:56:37.820Z,100083.03
2022-12-18T23:59:04.989Z,100079.00
